Terminal Aerodrome Forecast
Issued by NWS

Home | Current Version | Previous Version | Text Only | Print | Product List | Glossary On
Versions: 1 2 3 4 5 6 7 8 9 10 11 12 13 14 15 16 17 18 19 20 21 22 23 24 25 26 27 28 29 30 31 32 33 34 35 36 37 38 39 40 41 42 43 44 45 46 47 48 49
000
FTPA31 PHFO 280500
TAFITO
TAF
PHTO 280520Z 2806/2906 30008KT 6SM -RA SCT030 OVC040
      TEMPO 2806/2810 4SM RA BR BKN025
     FM281000 32010KT 6SM -RA SCT025 OVC035
     FM281800 35012KT P6SM VCSH SCT025 OVC040=

USA.gov is the U.S. government's official web portal to all federal, state and local government web resources and services.